Flight Track Log - Related Links

Times and Time Zones

All times are in EDT time to prevent confusion due to time zone crossing. See the ASQ6115 flight status page for this flight to view local times or setup timezone preferences in your user account.

Time Position Orientation Groundspeed Altitude Reporting Facility
EDT Latitude Longitude Course Direction KTS MPH feet Rate Location/Type
Fri 04:31:58 PM 26.1706 -98.1736 74° East 222 255 3,000  Level Houston Center
Fri 04:32:13 PM 26.1844 -98.1678 21° North 225 259 3,300 1,548 Climbing Houston Center
Fri 04:33:00 PM 26.2389 -98.1439 21° North 288 331 4,600 1,742 Climbing Houston Center
Fri 04:33:15 PM 26.2561 -98.1378 18° North 270 311 5,100 2,182 Climbing Houston Center
Fri 04:34:00 PM 26.4339 -98.1081 24° Northeast  Level FlightAware
Fri 04:34:06 PM 26.3178 -98.1128 20° North 287 330 7,000  Level Houston Center
Fri 04:35:00 PM 26.5000 -98.0750 24° Northeast  Level FlightAware
Fri 04:35:19 PM 26.4147 -98.0722 21° North 295 339 9,300  Level Houston Center
Fri 04:36:00 PM 26.5665 -98.0427 22° Northeast  Level FlightAware
Fri 04:36:21 PM 26.4950 -98.0394 20° North 304 350 10,500  Level Houston Center
Fri 04:37:23 PM 26.5964 -97.9972 20° North 352 405 11,300 1,016 Climbing Houston Center
Fri 04:38:25 PM 26.6933 -97.9558 21° North 370 426 12,600 1,258 Climbing Houston Center
Fri 04:39:27 PM 26.7989 -97.9119 20° North 374 430 13,900 1,248 Climbing Houston Center
Fri 04:40:30 PM 26.8969 -97.8708 21° North 377 434 15,200 1,296 Climbing Houston Center
Fri 04:41:32 PM 27.0022 -97.8253 21° North 377 434 16,600 1,210 Climbing Houston Center
Fri 04:42:34 PM 27.0939 -97.7706 28° Northeast 373 429 17,700 1,016 Climbing Houston Center
Fri 04:43:36 PM 27.1778 -97.7158 30° Northeast 381 438 18,700 968 Climbing Houston Center
Fri 04:44:38 PM 27.2719 -97.6553 30° Northeast 386 444 19,700 1,065 Climbing Houston Center
Fri 04:45:40 PM 27.3881 -97.5806 30° Northeast 396 456 20,900 1,065 Climbing Houston Center
Fri 04:46:42 PM 27.4853 -97.5189 29° Northeast 401 461 21,900 968 Climbing Houston Center
Fri 04:47:44 PM 27.5822 -97.4561 30° Northeast 403 464 22,900 919 Climbing Houston Center
Fri 04:48:46 PM 27.6806 -97.3925 30° Northeast 406 467 23,800 912 Climbing Houston Center
Fri 04:49:49 PM 27.7778 -97.3292 30° Northeast 405 466 24,800 576 Climbing Houston Center
Fri 04:50:51 PM 27.8781 -97.2650 29° Northeast 409 471 25,000 97 Climbing Houston Center
Fri 04:51:53 PM 27.9881 -97.1942 30° Northeast 430 495 25,000  Level Houston Center
Fri 04:52:55 PM 28.1206 -97.1089 30° Northeast 454 522 25,000  Level Houston Center
Fri 04:53:57 PM 28.2314 -97.0350 30° Northeast 461 531 25,000  Level Houston Center
Fri 04:54:59 PM 28.3447 -96.9617 30° Northeast 468 539 25,000  Level Houston Center
Fri 04:56:01 PM 28.4586 -96.8886 29° Northeast 471 542 25,000 -194 Level Houston Center
Fri 04:57:03 PM 28.5714 -96.8133 30° Northeast 471 542 24,600 -484 Descending Houston Center
Fri 04:58:05 PM 28.7089 -96.7242 30° Northeast 475 547 24,000 -528 Descending Houston Center
Fri 04:59:08 PM 28.8208 -96.6500 30° Northeast 469 540 23,500 -576 Descending Houston Center
Fri 05:00:10 PM 28.9314 -96.5769 30° Northeast 463 533 22,800 -1,258 Descending Houston Center
Fri 05:01:12 PM 29.0397 -96.5053 30° Northeast 456 525 20,900 -1,839 Descending Houston Center
Fri 05:02:14 PM 29.1431 -96.4356 31° Northeast 438 504 19,000 -2,177 Descending Houston Center
Fri 05:03:16 PM 29.2633 -96.3572 30° Northeast 422 486 16,400 -2,376 Descending Houston Center
Fri 05:03:55 PM 29.3314 -96.3128 30° Northeast 404 465 15,000 -1,935 Descending Houston Center
Fri 05:04:18 PM 29.3589 -96.2919 33° Northeast 407 468 14,400 -1,935 Descending Houston Center
Fri 05:04:57 PM 29.4247 -96.2497 29° Northeast 394 453 13,000 -1,935 Descending Houston Center
Fri 05:05:20 PM 29.4519 -96.2306 32° Northeast 395 455 12,400 -706 Descending Houston Center
Fri 05:06:22 PM 29.5344 -96.1742 31° Northeast 361 415 12,000 -360 Descending Houston Center
Fri 05:07:00 PM 29.5703 -96.1133 56° Northeast 328 377 11,800 -484 Descending Houston Center
Fri 05:07:24 PM 29.5856 -96.0867 57° Northeast 336 387 11,500 -982 Descending Houston Center
Fri 05:07:55 PM 29.6156 -96.0292 59° Northeast 334 384 10,900 -1,048 Descending Houston Center
Fri 05:08:27 PM 29.6422 -95.9761 60° Northeast 332 382 10,400 -774 Descending Houston Center
Fri 05:08:57 PM 29.6639 -95.9322 60° Northeast 325 374 10,100 -387 Descending Houston Center
Fri 05:09:29 PM 29.6864 -95.8881 60° Northeast 322 371 10,000 -98 Descending Houston Center
Fri 05:09:58 PM 29.7086 -95.8456 59° Northeast 315 362 10,000  Level Houston Center
Fri 05:10:31 PM 29.7297 -95.7994 62° Northeast 318 366 10,000  Level Houston Center
Fri 05:10:59 PM 29.7511 -95.7564 60° Northeast 317 365 10,000 -97 Level Houston Center
Fri 05:11:33 PM 29.7728 -95.7156 59° Northeast 307 353 9,900 -896 Descending Houston Center
Fri 05:12:06 PM 29.7956 -95.6669 62° Northeast 271 312 9,000 -1,355 Descending Houston Center
Fri 05:12:35 PM 29.8106 -95.6403 57° Northeast 277 319 8,500 -1,355 Descending Houston Center
Fri 05:13:08 PM 29.8350 -95.5900 61° Northeast 274 315 7,600 -1,452 Descending Houston Center
Fri 05:13:37 PM 29.8489 -95.5636 59° Northeast 276 318 7,000 -1,377 Descending Houston Center
Fri 05:14:09 PM 29.8742 -95.5108 61° Northeast 263 303 6,200 -968 Descending Houston Center
Fri 05:14:39 PM 29.8847 -95.4903 59° Northeast 264 304 6,000 -214 Descending Houston Center
Fri 05:15:05 PM 29.8947 -95.4383 77° East 274 315 6,000  Level Houston Center
Fri 05:15:41 PM 29.8961 -95.3894 88° East 276 318 6,000  Level Houston Center
Fri 05:16:06 PM 29.8953 -95.3517 91° East 269 310 6,000  Level Houston Center
Fri 05:16:43 PM 29.8967 -95.3028 88° East 270 311 6,000 -194 Level Houston Center
Fri 05:17:08 PM 29.8958 -95.2672 92° East 251 289 5,800 -1,143 Descending Houston Center
Fri 05:17:46 PM 29.8969 -95.2222 88° East 259 298 4,800 -1,475 Descending Houston Center
Fri 05:18:09 PM 29.8969 -95.1875 90° East 240 276 4,300 -1,065 Descending Houston Center
Fri 05:18:48 PM 29.8972 -95.1478 90° East 243 280 3,700 -1,082 Descending Houston Center
Fri 05:19:10 PM 29.9008 -95.1172 82° East 224 258 3,200 -677 Descending Houston Center
Fri 05:19:50 PM 29.9314 -95.1022 23° Northeast 234 269 3,000 -492 Descending Houston Center
Fri 05:20:11 PM 29.9594 -95.1147 339° North 219 252 2,700 -484 Descending Houston Center
Fri 05:20:52 PM 29.9806 -95.1375 317° Northwest 224 258 2,500 -293 Descending Houston Center

Login

Don't have an account? Register now (free) for customized features, flight alerts, and more!